createdAt,value
2018-08-31T00:02:07.904Z,14.50
2018-08-31T00:04:47.787Z,14.83
2018-08-31T00:07:32.028Z,14.47
2018-08-31T00:12:41.494Z,15.27
2018-08-31T00:15:10.392Z,14.47
2018-08-31T00:17:40.244Z,15.20
2018-08-31T00:20:10.166Z,14.00
2018-08-31T00:22:38.755Z,15.20
2018-08-31T00:25:19.699Z,14.13
2018-08-31T00:27:59.387Z,14.20
2018-08-31T00:30:39.315Z,14.43
2018-08-31T00:33:19.127Z,13.60
2018-08-31T00:35:58.530Z,14.80
2018-08-31T00:40:52.100Z,13.97
2018-08-31T00:43:43.992Z,14.43
2018-08-31T00:46:12.579Z,15.73
2018-08-31T00:48:41.143Z,14.43
2018-08-31T00:51:09.759Z,13.13
2018-08-31T00:53:38.330Z,12.87
2018-08-31T00:56:06.898Z,12.80
2018-08-31T00:58:35.737Z,12.77
2018-08-31T01:01:04.833Z,12.40
2018-08-31T01:03:33.912Z,11.10
2018-08-31T01:06:03.042Z,11.77
2018-08-31T01:08:31.607Z,11.87
2018-08-31T01:11:00.184Z,12.27
2018-08-31T01:13:28.859Z,13.40
2018-08-31T01:15:57.430Z,12.57
2018-08-31T01:18:26.155Z,12.00
2018-08-31T01:20:54.991Z,12.03
2018-08-31T01:23:23.579Z,13.63
2018-08-31T01:25:52.131Z,12.30
2018-08-31T01:28:20.744Z,11.03
2018-08-31T01:30:49.371Z,12.17
2018-08-31T01:33:17.948Z,11.07
2018-08-31T01:35:46.900Z,11.00
2018-08-31T01:38:15.448Z,12.07
2018-08-31T01:40:44.024Z,9.97
2018-08-31T01:43:12.641Z,10.97
2018-08-31T01:45:41.683Z,10.30
2018-08-31T01:48:10.253Z,10.67
2018-08-31T01:50:42.936Z,10.80
2018-08-31T01:53:11.488Z,9.90
2018-08-31T01:55:40.055Z,9.97
2018-08-31T01:58:08.875Z,10.40
2018-08-31T02:00:37.443Z,9.67
2018-08-31T02:03:06.243Z,9.93
2018-08-31T02:05:35.257Z,10.10
2018-08-31T02:08:03.814Z,10.43
2018-08-31T02:10:32.403Z,8.30
2018-08-31T02:13:01.259Z,10.87
2018-08-31T02:15:29.809Z,10.97
2018-08-31T02:17:58.355Z,10.87
2018-08-31T02:20:27.371Z,11.37
2018-08-31T02:22:55.934Z,10.60
2018-08-31T02:25:24.502Z,11.30
2018-08-31T02:27:53.100Z,10.50
2018-08-31T02:30:21.832Z,10.80
2018-08-31T02:32:50.515Z,10.70
2018-08-31T02:35:19.205Z,11.00
2018-08-31T02:37:47.767Z,12.10
2018-08-31T02:40:16.324Z,10.20
2018-08-31T02:42:44.944Z,10.00
2018-08-31T02:45:13.504Z,10.57
2018-08-31T02:47:42.099Z,8.67
2018-08-31T02:50:10.788Z,10.93
2018-08-31T02:52:39.487Z,10.27
2018-08-31T02:55:08.066Z,10.97
2018-08-31T02:57:36.759Z,10.47
2018-08-31T03:00:05.379Z,10.80
2018-08-31T03:02:33.943Z,10.67
2018-08-31T03:05:02.540Z,9.80
2018-08-31T03:07:31.104Z,10.27
2018-08-31T03:09:59.779Z,9.20
2018-08-31T03:12:28.376Z,8.80
2018-08-31T03:14:57.071Z,8.60
2018-08-31T03:17:25.655Z,9.43
2018-08-31T03:19:54.343Z,9.77
2018-08-31T03:22:22.935Z,8.83
2018-08-31T03:24:51.509Z,9.63
2018-08-31T03:27:20.139Z,7.63
2018-08-31T03:29:48.695Z,8.67
2018-08-31T03:32:17.271Z,8.90
2018-08-31T03:34:46.063Z,9.93
2018-08-31T03:37:14.712Z,8.40
2018-08-31T03:39:43.266Z,7.70
2018-08-31T03:42:11.955Z,8.07
2018-08-31T03:44:40.532Z,8.83
2018-08-31T03:47:09.123Z,9.40
2018-08-31T03:49:37.760Z,7.30
2018-08-31T03:52:06.439Z,9.20
2018-08-31T03:54:35.123Z,8.60
2018-08-31T03:57:03.791Z,7.87
2018-08-31T03:59:32.419Z,7.37
2018-08-31T04:02:00.999Z,7.70
2018-08-31T04:04:29.723Z,8.10
2018-08-31T04:06:58.283Z,7.63
2018-08-31T04:09:27.043Z,8.27
2018-08-31T04:11:55.926Z,7.67
2018-08-31T04:14:24.484Z,8.20
2018-08-31T04:16:53.052Z,7.70
2018-08-31T04:19:21.638Z,8.83
2018-08-31T04:21:50.228Z,8.00
2018-08-31T04:24:18.932Z,7.43
2018-08-31T04:26:47.950Z,8.47
2018-08-31T04:29:16.515Z,7.53
2018-08-31T04:31:45.087Z,9.80
2018-08-31T04:34:14.369Z,7.83
2018-08-31T04:36:43.592Z,7.30
2018-08-31T04:39:13.545Z,7.47
2018-08-31T04:41:43.539Z,7.33
2018-08-31T04:44:12.108Z,6.57
2018-08-31T04:46:41.079Z,7.63
2018-08-31T04:49:09.662Z,7.90
2018-08-31T04:51:38.211Z,6.70
2018-08-31T04:54:07.369Z,6.80
2018-08-31T04:56:35.928Z,6.87
2018-08-31T04:59:04.516Z,6.40
2018-08-31T05:01:33.120Z,6.90
2018-08-31T05:04:01.748Z,6.47
2018-08-31T05:06:30.335Z,6.80
2018-08-31T05:08:59.037Z,6.93
2018-08-31T05:11:27.604Z,6.57
2018-08-31T05:13:56.160Z,6.07
2018-08-31T05:16:24.999Z,5.57
2018-08-31T05:18:53.567Z,6.63
2018-08-31T05:21:22.143Z,5.77
2018-08-31T05:23:50.812Z,6.73
2018-08-31T05:26:19.368Z,5.80
2018-08-31T05:28:47.976Z,5.70
2018-08-31T05:31:16.559Z,5.90
2018-08-31T05:33:46.111Z,7.73
2018-08-31T05:36:14.677Z,6.33
2018-08-31T05:38:43.343Z,7.50
2018-08-31T05:41:11.929Z,7.70
2018-08-31T05:43:40.482Z,7.00
2018-08-31T05:46:09.083Z,7.40
2018-08-31T05:48:37.647Z,6.80
2018-08-31T05:51:06.569Z,6.50
2018-08-31T05:53:35.368Z,7.47
2018-08-31T05:56:03.899Z,6.80
2018-08-31T05:58:32.451Z,6.60
2018-08-31T06:01:01.060Z,6.80
2018-08-31T06:03:29.623Z,6.53
2018-08-31T06:05:58.187Z,6.00
2018-08-31T06:08:26.779Z,6.80
2018-08-31T06:10:55.335Z,6.10
2018-08-31T06:13:23.955Z,6.60
2018-08-31T06:15:52.619Z,6.77
2018-08-31T06:18:21.193Z,6.20
2018-08-31T06:20:49.770Z,6.27
2018-08-31T06:23:18.387Z,6.00
2018-08-31T06:25:46.948Z,7.47
2018-08-31T06:28:15.495Z,5.83
2018-08-31T06:30:44.207Z,7.17
2018-08-31T06:33:12.771Z,7.33
2018-08-31T06:35:41.330Z,6.67
2018-08-31T06:38:10.267Z,6.90
2018-08-31T06:40:38.920Z,7.13
2018-08-31T06:43:07.448Z,7.63
2018-08-31T06:45:36.107Z,6.87
2018-08-31T06:48:04.692Z,8.60
2018-08-31T06:50:33.255Z,6.37
2018-08-31T06:53:01.839Z,7.70
2018-08-31T06:55:30.395Z,9.57
2018-08-31T06:57:58.971Z,7.50
2018-08-31T07:00:27.648Z,9.33
2018-08-31T07:02:56.185Z,8.40
2018-08-31T07:05:24.760Z,7.40
2018-08-31T07:07:53.555Z,6.90
2018-08-31T07:10:22.123Z,7.57
2018-08-31T07:12:50.700Z,7.13
2018-08-31T07:15:19.695Z,10.33
2018-08-31T07:17:48.275Z,7.40
2018-08-31T07:20:16.864Z,7.80
2018-08-31T07:22:45.813Z,7.50
2018-08-31T07:25:14.484Z,7.33
2018-08-31T07:27:43.078Z,7.00
2018-08-31T07:30:12.063Z,7.20
2018-08-31T07:32:40.633Z,7.20
2018-08-31T07:35:09.224Z,7.57
2018-08-31T07:37:37.820Z,6.43
2018-08-31T07:40:06.819Z,6.80
2018-08-31T07:42:35.404Z,6.33
2018-08-31T07:45:04.232Z,7.37
2018-08-31T07:47:32.796Z,5.80
2018-08-31T07:50:01.359Z,6.30
2018-08-31T07:52:30.024Z,7.10
2018-08-31T07:54:58.657Z,7.00
2018-08-31T07:57:27.227Z,6.57
2018-08-31T07:59:55.807Z,6.93
2018-08-31T08:02:24.359Z,6.33
2018-08-31T08:04:52.920Z,6.20
2018-08-31T08:07:21.673Z,6.83
2018-08-31T08:09:50.195Z,7.27
2018-08-31T08:12:18.755Z,6.57
2018-08-31T08:14:47.831Z,6.30
2018-08-31T08:17:16.303Z,10.00
2018-08-31T08:19:44.925Z,6.00
2018-08-31T08:22:14.088Z,6.20
2018-08-31T08:24:42.668Z,6.47
2018-08-31T08:27:11.254Z,5.80
2018-08-31T08:29:39.855Z,6.53
2018-08-31T08:32:08.460Z,6.40
2018-08-31T08:34:37.036Z,5.83
2018-08-31T08:37:05.831Z,6.67
2018-08-31T08:39:34.459Z,6.37
2018-08-31T08:42:03.111Z,6.03
2018-08-31T08:44:31.862Z,7.40
2018-08-31T08:47:00.515Z,6.77
2018-08-31T08:49:29.100Z,6.43
2018-08-31T08:51:57.713Z,7.00
2018-08-31T08:54:26.283Z,5.07
2018-08-31T08:56:55.156Z,6.93
2018-08-31T08:59:24.173Z,6.40
2018-08-31T09:01:52.746Z,7.30
2018-08-31T09:04:21.309Z,5.60
2018-08-31T09:06:49.907Z,6.53
2018-08-31T09:09:18.475Z,6.93
2018-08-31T09:11:47.053Z,7.00
2018-08-31T09:14:15.640Z,7.87
2018-08-31T09:16:44.203Z,7.30
2018-08-31T09:19:12.775Z,8.70
2018-08-31T09:21:41.488Z,5.90
2018-08-31T09:24:10.079Z,6.50
2018-08-31T09:26:38.648Z,8.43
2018-08-31T09:29:07.320Z,6.53
2018-08-31T09:31:35.904Z,6.97
2018-08-31T09:34:04.468Z,6.47
2018-08-31T09:36:33.052Z,8.50
2018-08-31T09:39:01.596Z,7.10
2018-08-31T09:41:30.211Z,7.90
2018-08-31T09:43:59.177Z,8.47
2018-08-31T09:46:27.675Z,6.97
2018-08-31T09:48:56.256Z,8.63
2018-08-31T09:51:24.932Z,8.23
2018-08-31T09:53:53.529Z,8.90
2018-08-31T09:56:22.094Z,7.10
2018-08-31T09:58:50.824Z,8.03
2018-08-31T10:01:24.607Z,8.13
2018-08-31T10:03:53.318Z,8.60
2018-08-31T10:06:21.860Z,8.87
2018-08-31T10:08:50.415Z,7.80
2018-08-31T10:11:19.359Z,10.20
2018-08-31T10:13:47.912Z,9.63
2018-08-31T10:16:16.542Z,10.40
2018-08-31T10:18:45.169Z,9.10
2018-08-31T10:21:13.715Z,8.87
2018-08-31T10:23:42.287Z,9.10
2018-08-31T10:26:11.195Z,8.50
2018-08-31T10:28:40.035Z,10.83
2018-08-31T10:31:08.599Z,10.50
2018-08-31T10:33:37.544Z,10.27
2018-08-31T10:36:06.639Z,11.20
2018-08-31T10:38:35.180Z,11.77
2018-08-31T10:41:04.112Z,10.67
2018-08-31T10:43:32.697Z,13.30
2018-08-31T10:46:01.255Z,11.90
2018-08-31T10:48:29.851Z,11.80
2018-08-31T10:50:58.408Z,12.03
2018-08-31T10:53:26.967Z,12.83
2018-08-31T10:55:55.572Z,13.70
2018-08-31T10:58:24.127Z,13.47
2018-08-31T11:00:52.755Z,12.43
2018-08-31T11:03:21.563Z,13.47
2018-08-31T11:05:50.112Z,14.13
2018-08-31T11:08:18.727Z,13.20
2018-08-31T11:10:47.411Z,15.30
2018-08-31T11:13:15.960Z,15.00
2018-08-31T11:15:44.579Z,14.50
2018-08-31T11:18:13.190Z,14.63
2018-08-31T11:20:41.767Z,15.13
2018-08-31T11:23:10.355Z,14.83
2018-08-31T11:25:38.984Z,15.43
2018-08-31T11:28:07.603Z,14.30
2018-08-31T11:30:36.181Z,15.50
2018-08-31T11:33:05.038Z,16.73
2018-08-31T11:35:33.615Z,16.40
2018-08-31T11:38:02.191Z,16.23
2018-08-31T11:40:30.912Z,17.27
2018-08-31T11:42:59.512Z,16.93
2018-08-31T11:45:28.114Z,15.27
2018-08-31T11:47:56.723Z,16.93
2018-08-31T11:50:25.295Z,16.87
2018-08-31T11:52:53.855Z,17.07
2018-08-31T11:55:22.865Z,18.50
2018-08-31T11:57:51.365Z,19.07
2018-08-31T12:00:20.043Z,18.40
2018-08-31T12:02:48.636Z,20.50
2018-08-31T12:05:17.200Z,20.47
2018-08-31T12:07:45.771Z,21.70
2018-08-31T12:10:14.468Z,21.07
2018-08-31T12:12:43.036Z,19.50
2018-08-31T12:15:11.605Z,20.77
2018-08-31T12:17:40.287Z,23.63
2018-08-31T12:20:09.296Z,21.83
2018-08-31T12:22:37.960Z,20.60
2018-08-31T12:25:08.938Z,22.03
2018-08-31T12:27:38.799Z,21.40
2018-08-31T12:30:08.136Z,21.90
2018-08-31T12:32:37.276Z,22.17
2018-08-31T12:35:06.349Z,21.30
2018-08-31T12:37:35.503Z,21.33
2018-08-31T12:40:04.604Z,20.57
2018-08-31T12:42:33.363Z,19.53
2018-08-31T12:45:02.351Z,19.97
2018-08-31T12:47:30.926Z,20.03
2018-08-31T12:50:00.379Z,20.07
2018-08-31T12:52:29.143Z,20.40
2018-08-31T12:54:57.746Z,19.10
2018-08-31T12:57:26.423Z,19.87
2018-08-31T12:59:59.635Z,19.77
2018-08-31T13:02:29.575Z,20.73
2018-08-31T13:04:58.140Z,20.23
2018-08-31T13:07:27.175Z,18.97
2018-08-31T13:12:34.100Z,21.13
2018-08-31T13:15:02.971Z,19.00
2018-08-31T13:17:31.663Z,20.93
2018-08-31T13:20:00.506Z,19.90
2018-08-31T13:22:29.411Z,22.47
2018-08-31T13:24:58.041Z,21.03
2018-08-31T13:27:26.671Z,20.10
2018-08-31T13:29:55.312Z,20.73
2018-08-31T13:32:23.931Z,20.33
2018-08-31T13:34:52.978Z,20.63
2018-08-31T13:37:21.667Z,18.90
2018-08-31T13:39:50.242Z,21.00
2018-08-31T13:42:19.227Z,20.77
2018-08-31T13:44:48.180Z,19.90
2018-08-31T13:47:19.993Z,21.13
2018-08-31T13:49:49.088Z,20.57
2018-08-31T13:52:17.672Z,18.17
2018-08-31T13:54:46.651Z,18.90
2018-08-31T13:57:15.241Z,19.70
2018-08-31T13:59:44.164Z,18.47
2018-08-31T14:02:12.895Z,19.40
2018-08-31T14:04:41.472Z,21.10
2018-08-31T14:07:10.108Z,18.70
2018-08-31T14:09:38.915Z,23.13
2018-08-31T14:12:07.600Z,21.17
2018-08-31T14:14:36.233Z,22.77
2018-08-31T14:17:05.240Z,22.03
2018-08-31T14:19:33.955Z,24.37
2018-08-31T14:22:02.520Z,20.97
2018-08-31T14:24:31.208Z,22.33
2018-08-31T14:26:59.777Z,20.87
2018-08-31T14:29:28.424Z,20.00
2018-08-31T14:31:57.069Z,19.33
2018-08-31T14:34:25.623Z,20.27
2018-08-31T14:36:54.195Z,17.37
2018-08-31T14:39:22.793Z,18.97
2018-08-31T14:41:51.348Z,20.03
2018-08-31T14:44:20.601Z,18.60
2018-08-31T14:46:49.302Z,18.77
2018-08-31T14:49:17.868Z,18.20
2018-08-31T14:51:46.460Z,19.20
2018-08-31T14:54:15.059Z,18.40
2018-08-31T14:56:43.631Z,19.03
2018-08-31T14:59:12.290Z,18.00
2018-08-31T15:01:41.856Z,18.37
2018-08-31T15:04:10.432Z,18.77
2018-08-31T15:06:38.996Z,18.63
2018-08-31T15:09:09.564Z,18.03
2018-08-31T15:11:38.127Z,18.67
2018-08-31T15:14:06.695Z,19.50
2018-08-31T15:16:35.407Z,19.50
2018-08-31T15:19:03.984Z,20.07
2018-08-31T15:21:32.543Z,19.63
2018-08-31T15:24:01.260Z,19.53
2018-08-31T15:26:29.813Z,17.63
2018-08-31T15:28:58.361Z,20.57
2018-08-31T15:31:27.393Z,18.07
2018-08-31T15:33:55.843Z,18.43
2018-08-31T15:36:24.400Z,18.30
2018-08-31T15:38:53.076Z,16.77
2018-08-31T15:41:21.647Z,18.10
2018-08-31T15:43:50.210Z,19.33
2018-08-31T15:46:18.896Z,18.63
2018-08-31T15:48:47.460Z,17.87
2018-08-31T15:51:16.020Z,17.20
2018-08-31T15:53:45.283Z,16.27
2018-08-31T15:56:13.873Z,17.67
2018-08-31T15:58:42.447Z,18.90
2018-08-31T16:01:11.035Z,20.33
2018-08-31T16:03:39.601Z,21.37
2018-08-31T16:06:08.478Z,20.40
2018-08-31T16:08:37.148Z,19.87
2018-08-31T16:11:05.748Z,19.67
2018-08-31T16:13:34.299Z,20.53
2018-08-31T16:16:02.974Z,20.73
2018-08-31T16:18:31.844Z,19.70
2018-08-31T16:21:01.800Z,19.53
2018-08-31T16:23:31.713Z,19.10
2018-08-31T16:26:00.298Z,18.40
2018-08-31T16:28:28.863Z,18.73
2018-08-31T16:30:59.607Z,20.80
2018-08-31T16:33:28.210Z,19.97
2018-08-31T16:35:56.791Z,19.90
2018-08-31T16:38:25.467Z,17.27
2018-08-31T16:40:54.071Z,17.70
2018-08-31T16:43:23.039Z,17.43
2018-08-31T16:45:51.720Z,17.03
2018-08-31T16:48:20.312Z,16.60
2018-08-31T16:50:48.875Z,15.30
2018-08-31T16:53:17.695Z,16.40
2018-08-31T16:55:46.273Z,16.23
2018-08-31T16:58:14.839Z,15.03
2018-08-31T17:00:43.545Z,16.23
2018-08-31T17:03:12.207Z,14.90
2018-08-31T17:05:40.760Z,16.13
2018-08-31T17:08:09.640Z,18.90
2018-08-31T17:10:38.675Z,21.10
2018-08-31T17:13:07.251Z,17.10
2018-08-31T17:15:36.171Z,17.20
2018-08-31T17:18:04.794Z,16.13
2018-08-31T17:20:33.344Z,15.67
2018-08-31T17:23:02.264Z,15.33
2018-08-31T17:25:30.987Z,14.73
2018-08-31T17:28:05.011Z,15.70
2018-08-31T17:30:33.607Z,16.47
2018-08-31T17:33:07.660Z,16.27
2018-08-31T17:35:41.425Z,17.53
2018-08-31T17:38:10.992Z,18.83
2018-08-31T17:40:39.558Z,18.50
2018-08-31T17:43:08.159Z,19.47
2018-08-31T17:45:37.027Z,19.40
2018-08-31T17:48:05.708Z,19.70
2018-08-31T17:50:34.291Z,22.47
2018-08-31T17:53:03.279Z,20.27
2018-08-31T17:55:31.830Z,22.90
2018-08-31T17:58:00.391Z,20.00
2018-08-31T18:00:29.052Z,17.97
2018-08-31T18:02:57.636Z,16.83
2018-08-31T18:05:26.227Z,17.70
2018-08-31T18:07:55.208Z,17.17
2018-08-31T18:10:23.939Z,17.20
2018-08-31T18:12:52.511Z,14.60
2018-08-31T18:15:21.814Z,14.43
2018-08-31T18:17:50.340Z,17.70
2018-08-31T18:20:18.899Z,15.97
2018-08-31T18:22:48.567Z,17.07
2018-08-31T18:25:17.158Z,16.43
2018-08-31T18:27:45.710Z,16.00
2018-08-31T18:30:14.381Z,18.20
2018-08-31T18:32:42.935Z,17.83
2018-08-31T18:35:11.856Z,17.30
2018-08-31T18:37:46.375Z,16.00
2018-08-31T18:40:14.939Z,16.87
2018-08-31T18:42:43.511Z,17.23
2018-08-31T18:45:12.107Z,19.30
2018-08-31T18:47:40.722Z,18.27
2018-08-31T18:50:09.369Z,17.83
2018-08-31T18:52:38.199Z,18.30
2018-08-31T18:55:06.739Z,18.43
2018-08-31T18:57:35.311Z,18.33
2018-08-31T19:00:03.952Z,17.60
2018-08-31T19:02:32.516Z,20.23
2018-08-31T19:05:01.093Z,19.57
2018-08-31T19:07:29.792Z,17.47
2018-08-31T19:10:03.744Z,19.43
2018-08-31T19:12:32.644Z,17.70
2018-08-31T19:15:01.195Z,19.43
2018-08-31T19:17:29.832Z,19.47
2018-08-31T19:19:58.935Z,19.00
2018-08-31T19:22:27.507Z,19.33
2018-08-31T19:24:56.113Z,19.50
2018-08-31T19:27:25.060Z,19.90
2018-08-31T19:29:53.635Z,21.63
2018-08-31T19:32:22.389Z,21.07
2018-08-31T19:34:51.327Z,19.20
2018-08-31T19:37:19.943Z,18.90
2018-08-31T19:39:48.508Z,20.87
2018-08-31T19:42:17.192Z,19.23
2018-08-31T19:44:45.779Z,21.77
2018-08-31T19:47:14.357Z,20.80
2018-08-31T19:49:43.037Z,19.40
2018-08-31T19:52:11.607Z,19.13
2018-08-31T19:54:40.196Z,19.10
2018-08-31T19:57:09.095Z,20.53
2018-08-31T19:59:37.655Z,19.20
2018-08-31T20:02:07.013Z,19.60
2018-08-31T20:04:35.756Z,19.13
2018-08-31T20:07:04.318Z,20.00
2018-08-31T20:09:32.979Z,19.60
2018-08-31T20:12:01.760Z,19.80
2018-08-31T20:14:30.438Z,21.50
2018-08-31T20:16:59.020Z,22.40
2018-08-31T20:19:27.962Z,21.03
2018-08-31T20:21:56.841Z,21.97
2018-08-31T20:24:25.642Z,21.60
2018-08-31T20:26:54.355Z,23.40
2018-08-31T20:29:22.972Z,24.50
2018-08-31T20:31:51.687Z,23.00
2018-08-31T20:34:20.292Z,26.07
2018-08-31T20:36:48.851Z,26.20
2018-08-31T20:39:17.440Z,23.33
2018-08-31T20:41:46.168Z,27.73
2018-08-31T20:44:14.799Z,29.03
2018-08-31T20:46:43.358Z,26.87
2018-08-31T20:49:11.948Z,26.20
2018-08-31T20:51:40.571Z,24.73
2018-08-31T20:54:09.141Z,27.37
2018-08-31T20:56:37.838Z,25.80
2018-08-31T20:59:06.554Z,25.50
2018-08-31T21:01:35.467Z,26.53
2018-08-31T21:04:04.140Z,25.60
2018-08-31T21:06:32.935Z,27.80
2018-08-31T21:09:01.695Z,21.43
2018-08-31T21:11:30.720Z,24.47
2018-08-31T21:13:59.283Z,26.03
2018-08-31T21:16:27.855Z,23.57
2018-08-31T21:18:56.641Z,24.30
2018-08-31T21:21:25.215Z,27.27
2018-08-31T21:23:53.800Z,26.80
2018-08-31T21:26:22.655Z,24.67
2018-08-31T21:28:51.749Z,24.97
2018-08-31T21:31:20.348Z,26.43
2018-08-31T21:33:50.176Z,25.70
2018-08-31T21:36:18.739Z,27.10
2018-08-31T21:38:47.347Z,23.70
2018-08-31T21:41:15.943Z,24.23
2018-08-31T21:43:44.611Z,22.17
2018-08-31T21:46:14.609Z,22.97
2018-08-31T21:48:43.289Z,24.93
2018-08-31T21:51:12.008Z,26.10
2018-08-31T21:53:40.669Z,24.63
2018-08-31T21:56:09.339Z,23.87
2018-08-31T21:58:37.907Z,22.73
2018-08-31T22:01:11.787Z,23.30
2018-08-31T22:03:40.667Z,68.20
2018-08-31T22:06:09.416Z,61.97
2018-08-31T22:08:40.097Z,40.20
2018-08-31T22:11:08.827Z,33.30
2018-08-31T22:13:37.759Z,29.73
2018-08-31T22:16:06.851Z,33.53
2018-08-31T22:18:35.483Z,26.50
2018-08-31T22:21:04.539Z,28.23
2018-08-31T22:23:33.207Z,28.70
2018-08-31T22:26:01.852Z,29.13
2018-08-31T22:28:30.439Z,26.33
2018-08-31T22:30:59.083Z,28.53
2018-08-31T22:33:27.700Z,31.37
2018-08-31T22:35:56.275Z,29.97
2018-08-31T22:38:24.872Z,30.07
2018-08-31T22:40:53.599Z,27.97
2018-08-31T22:43:53.228Z,28.70
2018-08-31T22:46:22.879Z,29.00
2018-08-31T22:48:52.184Z,28.90
2018-08-31T22:51:22.251Z,30.30
2018-08-31T22:53:51.192Z,29.27
2018-08-31T22:56:19.783Z,27.97
2018-08-31T22:58:48.447Z,28.57
2018-08-31T23:01:17.027Z,30.60
2018-08-31T23:03:45.622Z,29.60
2018-08-31T23:06:14.299Z,30.47
2018-08-31T23:08:42.924Z,30.50
2018-08-31T23:11:12.567Z,32.93
2018-08-31T23:13:43.043Z,33.70
2018-08-31T23:16:11.632Z,30.23
2018-08-31T23:18:40.644Z,33.00
2018-08-31T23:21:10.171Z,33.97
2018-08-31T23:23:43.951Z,31.30
2018-08-31T23:26:12.594Z,33.87
2018-08-31T23:28:41.150Z,34.37
2018-08-31T23:31:09.732Z,35.63
2018-08-31T23:33:38.317Z,37.23
2018-08-31T23:36:06.886Z,39.40
2018-08-31T23:38:35.492Z,38.87
2018-08-31T23:41:04.235Z,35.70
2018-08-31T23:43:32.830Z,38.77
2018-08-31T23:46:01.424Z,38.10
2018-08-31T23:48:30.040Z,39.87
2018-08-31T23:50:58.623Z,36.63
2018-08-31T23:53:27.236Z,40.77
2018-08-31T23:55:55.840Z,38.47
2018-08-31T23:58:24.411Z,39.50
